Time;durP1;ratioP1;P1;durP2;ratioP2;P2;SDS_P1;SDS_P2;PMS_P1;PMS_P2;Temp;Humidity;BMP_temperature;BMP_pressure;BME280_temperature;BME280_humidity;BME280_pressure;Samples;Min_cycle;Max_cycle;Signal;HPM_P1;HPM_P2
2023/05/16 00:02:12;;;;;;;8.73;4.20;;;11.40;98.00;;;;;;5050595;28;20470;-67
2023/05/16 00:04:39;;;;;;;6.50;3.90;;;11.40;98.00;;;;;;5051828;28;20458;-66
2023/05/16 00:07:06;;;;;;;6.70;4.13;;;11.40;98.00;;;;;;5051793;28;20489;-66
2023/05/16 00:09:33;;;;;;;8.70;3.50;;;11.40;98.00;;;;;;5051878;28;20952;-66
2023/05/16 00:12:02;;;;;;;6.40;3.67;;;11.40;98.00;;;;;;5051788;28;21052;-66
2023/05/16 00:14:29;;;;;;;7.90;3.23;;;11.40;98.00;;;;;;5051744;28;20487;-66
2023/05/16 00:16:57;;;;;;;8.20;3.90;;;11.40;98.00;;;;;;5051767;28;20459;-66
2023/05/16 00:19:25;;;;;;;6.27;3.23;;;11.40;98.00;;;;;;5050852;28;20494;-66
2023/05/16 00:21:52;;;;;;;7.57;3.90;;;11.40;98.00;;;;;;5051682;28;20484;-66
2023/05/16 00:24:19;;;;;;;8.13;3.67;;;11.30;98.00;;;;;;5051467;28;20458;-66
2023/05/16 00:26:46;;;;;;;4.97;3.20;;;11.30;98.00;;;;;;5051644;28;20681;-67
2023/05/16 00:29:15;;;;;;;5.73;3.00;;;11.30;98.00;;;;;;5051600;28;20463;-66
2023/05/16 00:31:42;;;;;;;8.00;3.80;;;11.50;98.00;;;;;;5051640;28;20969;-65
2023/05/16 00:34:10;;;;;;;6.83;3.00;;;11.80;98.00;;;;;;5051489;28;20459;-67
2023/05/16 00:36:38;;;;;;;7.83;3.50;;;11.80;98.00;;;;;;5051512;28;20517;-66
2023/05/16 00:39:05;;;;;;;5.53;3.53;;;11.50;98.00;;;;;;5050847;28;20527;-66
2023/05/16 00:41:32;;;;;;;7.30;3.83;;;11.50;98.00;;;;;;5050122;28;20477;-66
2023/05/16 00:43:59;;;;;;;5.23;3.70;;;11.50;98.00;;;;;;5051491;28;20469;-66
2023/05/16 00:46:28;;;;;;;7.23;3.67;;;11.50;98.00;;;;;;5053602;28;20522;-66
2023/05/16 00:48:55;;;;;;;7.07;3.87;;;11.30;98.00;;;;;;5055330;28;20547;-67
2023/05/16 00:51:22;;;;;;;6.90;3.60;;;11.30;98.00;;;;;;5054994;28;20490;-66
2023/05/16 00:53:51;;;;;;;6.83;3.77;;;11.20;98.00;;;;;;5055228;28;20851;-66
2023/05/16 00:56:20;;;;;;;7.43;3.73;;;11.20;98.00;;;;;;5055407;28;20467;-66
2023/05/16 00:58:47;;;;;;;6.13;3.20;;;11.10;98.00;;;;;;5055177;28;20788;-66
2023/05/16 01:01:14;;;;;;;6.47;3.70;;;11.00;98.00;;;;;;5055153;28;20454;-66
2023/05/16 01:03:44;;;;;;;8.07;3.90;;;11.00;98.00;;;;;;5054820;28;20922;-66
2023/05/16 01:06:12;;;;;;;7.47;3.10;;;11.00;98.00;;;;;;5055136;28;20463;-67
2023/05/16 01:08:39;;;;;;;5.70;3.10;;;11.00;98.00;;;;;;5053785;28;20476;-66
2023/05/16 01:11:20;;;;;;;9.10;3.17;;;10.90;98.00;;;;;;5055258;28;20455;-66
2023/05/16 01:13:56;;;;;;;7.23;3.60;;;10.80;98.00;;;;;;5053861;28;20488;-66
2023/05/16 01:16:33;;;;;;;6.83;3.10;;;10.80;98.00;;;;;;5054734;28;20588;-67
2023/05/16 01:19:15;;;;;;;5.13;2.87;;;10.80;98.00;;;;;;5054564;28;21046;-66
2023/05/16 01:21:50;;;;;;;9.93;3.90;;;10.80;98.00;;;;;;5054715;28;20458;-66
2023/05/16 01:24:27;;;;;;;8.07;4.50;;;10.70;98.00;;;;;;5054701;28;20582;-66
2023/05/16 01:26:58;;;;;;;6.77;3.67;;;10.70;98.00;;;;;;5054418;28;20499;-66
2023/05/16 01:29:25;;;;;;;5.80;3.57;;;10.60;98.00;;;;;;5055038;28;20457;-67
2023/05/16 01:31:53;;;;;;;8.50;4.10;;;10.60;98.00;;;;;;5054304;28;20487;-67
2023/05/16 01:34:20;;;;;;;6.03;3.57;;;10.60;98.00;;;;;;5054389;28;20458;-66
2023/05/16 01:36:58;;;;;;;7.57;3.77;;;10.70;98.00;;;;;;5054331;28;20461;-66
2023/05/16 01:39:33;;;;;;;7.03;3.50;;;10.70;98.00;;;;;;5054402;28;20459;-66
2023/05/16 01:42:06;;;;;;;7.70;3.40;;;10.60;98.00;;;;;;5054238;28;20450;-67
2023/05/16 01:44:37;;;;;;;6.53;3.50;;;10.60;98.00;;;;;;5054301;28;20490;-66
2023/05/16 01:47:10;;;;;;;6.10;3.43;;;10.50;98.00;;;;;;5054022;28;20463;-66
2023/05/16 01:49:51;;;;;;;8.37;3.73;;;10.60;98.00;;;;;;5053073;28;20552;-66
2023/05/16 01:52:25;;;;;;;9.20;4.13;;;10.70;98.00;;;;;;5052724;28;20479;-66
2023/05/16 01:54:55;;;;;;;7.80;3.87;;;10.70;98.00;;;;;;5054153;28;20884;-66
2023/05/16 01:57:27;;;;;;;5.40;3.33;;;10.60;98.00;;;;;;5053870;28;20482;-66
2023/05/16 01:59:54;;;;;;;7.70;3.70;;;10.40;98.00;;;;;;5054113;28;20454;-65
2023/05/16 02:02:21;;;;;;;7.13;3.80;;;10.30;98.00;;;;;;5054071;28;20469;-65
2023/05/16 02:04:48;;;;;;;6.80;3.73;;;10.20;98.00;;;;;;5054098;28;20453;-65
2023/05/16 02:07:15;;;;;;;6.70;3.77;;;10.10;98.00;;;;;;5053879;28;20456;-66
2023/05/16 02:09:42;;;;;;;7.03;3.97;;;10.10;98.00;;;;;;5053648;28;20457;-66
2023/05/16 02:12:13;;;;;;;7.43;3.37;;;10.00;98.00;;;;;;5053682;28;20884;-66
2023/05/16 02:14:41;;;;;;;5.93;3.53;;;10.00;98.00;;;;;;5052552;28;20466;-66
2023/05/16 02:17:08;;;;;;;7.13;3.50;;;10.10;98.00;;;;;;5053356;28;20464;-65
2023/05/16 02:19:35;;;;;;;5.67;3.40;;;10.20;98.00;;;;;;5053541;28;20448;-66
2023/05/16 02:22:02;;;;;;;6.47;3.23;;;10.30;98.00;;;;;;5053304;28;20471;-66
2023/05/16 02:24:29;;;;;;;8.60;3.57;;;10.50;98.00;;;;;;5053421;28;20450;-66
2023/05/16 02:26:56;;;;;;;7.00;3.30;;;10.60;98.00;;;;;;5053232;28;20468;-66
2023/05/16 02:29:24;;;;;;;5.20;3.07;;;10.50;98.00;;;;;;5053329;28;20514;-66
2023/05/16 02:31:53;;;;;;;6.73;3.33;;;10.30;98.00;;;;;;5053284;28;20791;-66
2023/05/16 02:34:20;;;;;;;6.03;3.40;;;10.20;98.00;;;;;;5053244;28;20518;-66
2023/05/16 02:36:47;;;;;;;8.87;4.00;;;10.20;98.00;;;;;;5053177;28;20777;-66
2023/05/16 02:39:14;;;;;;;9.80;4.37;;;10.20;98.00;;;;;;5053242;28;20452;-66
2023/05/16 02:41:41;;;;;;;6.70;3.77;;;10.30;98.00;;;;;;5052069;28;20452;-66
2023/05/16 02:44:09;;;;;;;11.77;4.10;;;10.20;98.00;;;;;;5053067;28;20456;-66
2023/05/16 02:46:36;;;;;;;11.57;4.50;;;10.20;98.00;;;;;;5053053;28;20963;-66
2023/05/16 02:49:05;;;;;;;8.83;3.73;;;10.20;98.00;;;;;;5052547;28;20968;-66
2023/05/16 02:51:40;;;;;;;6.80;3.33;;;10.20;98.00;;;;;;5052114;28;20500;-65
2023/05/16 02:54:08;;;;;;;12.10;4.27;;;10.20;98.00;;;;;;5052189;28;20974;-66
2023/05/16 02:56:36;;;;;;;5.90;3.13;;;10.40;98.00;;;;;;5052102;28;20460;-65
2023/05/16 02:59:03;;;;;;;5.40;3.70;;;10.60;98.00;;;;;;5051312;28;20824;-65
2023/05/16 03:01:30;;;;;;;5.43;3.43;;;10.60;98.00;;;;;;5052944;28;20458;-66
2023/05/16 03:03:57;;;;;;;6.70;3.63;;;10.60;98.00;;;;;;5052583;28;20979;-66
2023/05/16 03:06:26;;;;;;;8.90;3.63;;;10.70;98.00;;;;;;5051526;28;20497;-66
2023/05/16 03:08:54;;;;;;;6.17;3.87;;;10.80;98.00;;;;;;5051985;28;20465;-65
2023/05/16 03:11:23;;;;;;;6.33;3.83;;;10.90;98.00;;;;;;5052295;28;20489;-66
2023/05/16 03:13:50;;;;;;;8.17;4.07;;;11.00;98.00;;;;;;5052351;28;20484;-66
2023/05/16 03:16:18;;;;;;;9.03;4.10;;;11.00;98.00;;;;;;5052614;28;20458;-66
2023/05/16 03:18:46;;;;;;;6.73;3.90;;;11.00;98.00;;;;;;5052574;28;20481;-66
2023/05/16 03:21:13;;;;;;;9.17;4.27;;;11.00;98.00;;;;;;5052307;28;20505;-66
2023/05/16 03:23:41;;;;;;;6.97;4.00;;;11.00;98.00;;;;;;5052565;28;20549;-66
2023/05/16 03:26:08;;;;;;;8.53;3.70;;;11.00;98.00;;;;;;5052140;28;20986;-65
2023/05/16 03:28:37;;;;;;;6.60;3.50;;;10.90;98.00;;;;;;5052298;28;20459;-66
2023/05/16 03:31:04;;;;;;;7.50;3.80;;;10.80;98.00;;;;;;5050961;28;21144;-67
2023/05/16 03:33:31;;;;;;;8.57;3.53;;;10.80;98.00;;;;;;5052289;28;20482;-66
2023/05/16 03:35:58;;;;;;;8.00;3.80;;;10.90;98.00;;;;;;5052117;28;20476;-66
2023/05/16 03:38:26;;;;;;;8.33;3.47;;;11.10;98.00;;;;;;5052225;28;20932;-66
2023/05/16 03:40:54;;;;;;;11.43;5.10;;;11.20;98.00;;;;;;5052286;28;20463;-65
2023/05/16 03:43:21;;;;;;;9.70;4.57;;;11.50;98.00;;;;;;5052282;28;20455;-65
2023/05/16 03:45:48;;;;;;;6.20;3.30;;;11.50;98.00;;;;;;5052040;28;20513;-66
2023/05/16 03:48:15;;;;;;;8.77;4.00;;;11.40;98.00;;;;;;5052326;28;20948;-67
2023/05/16 03:50:43;;;;;;;7.67;3.83;;;11.40;98.00;;;;;;5051943;28;20993;-65
2023/05/16 03:53:10;;;;;;;8.17;4.30;;;11.40;98.00;;;;;;5051711;28;20566;-66
2023/05/16 03:55:38;;;;;;;8.33;4.30;;;11.40;98.00;;;;;;5051743;28;20453;-66
2023/05/16 03:58:06;;;;;;;7.67;4.10;;;11.40;98.00;;;;;;5052281;28;20468;-66
2023/05/16 04:00:35;;;;;;;7.00;4.20;;;11.60;98.00;;;;;;5052041;28;20454;-66
2023/05/16 04:03:02;;;;;;;6.97;3.67;;;11.50;98.00;;;;;;5051552;28;20452;-66
2023/05/16 04:05:30;;;;;;;20.07;5.37;;;11.50;98.00;;;;;;5051734;28;20467;-65
2023/05/16 04:07:57;;;;;;;7.90;3.90;;;11.50;98.00;;;;;;5051623;28;20964;-65
2023/05/16 04:10:27;;;;;;;7.80;4.47;;;11.50;98.00;;;;;;5051785;28;20466;-66
2023/05/16 04:12:54;;;;;;;5.77;3.70;;;11.50;98.00;;;;;;5051481;28;20539;-66
2023/05/16 04:15:23;;;;;;;6.87;4.10;;;11.50;98.00;;;;;;5051719;28;20465;-66
2023/05/16 04:17:50;;;;;;;7.47;3.80;;;11.60;98.00;;;;;;5051537;28;20505;-65
2023/05/16 04:20:17;;;;;;;8.87;4.20;;;11.70;98.00;;;;;;5055016;28;20465;-66
2023/05/16 04:22:44;;;;;;;8.50;4.40;;;11.70;98.00;;;;;;5055748;28;20805;-66
2023/05/16 04:25:11;;;;;;;9.80;4.30;;;11.70;98.00;;;;;;5055606;28;20864;-65
2023/05/16 04:27:45;;;;;;;6.53;3.73;;;11.80;98.00;;;;;;5055674;28;20459;-66
2023/05/16 04:30:13;;;;;;;8.47;4.07;;;11.90;98.00;;;;;;5055652;28;20993;-66
2023/05/16 04:32:41;;;;;;;8.33;3.83;;;12.00;98.00;;;;;;5055512;28;21064;-66
2023/05/16 04:35:09;;;;;;;8.53;4.23;;;11.90;98.00;;;;;;5055544;28;21027;-65
2023/05/16 04:37:37;;;;;;;9.63;3.87;;;11.80;98.00;;;;;;5054301;28;20502;-66
2023/05/16 04:40:06;;;;;;;10.03;4.57;;;11.80;98.00;;;;;;5055568;28;20494;-66
2023/05/16 04:42:33;;;;;;;9.03;4.00;;;11.90;98.00;;;;;;5055356;28;20469;-66
2023/05/16 04:45:02;;;;;;;9.10;4.50;;;11.90;98.00;;;;;;5055558;28;20989;-66
2023/05/16 04:47:30;;;;;;;6.00;3.47;;;11.80;98.00;;;;;;5055551;28;20833;-66
2023/05/16 04:50:02;;;;;;;6.63;3.70;;;11.80;98.00;;;;;;5055532;28;20552;-66
2023/05/16 04:52:29;;;;;;;9.27;3.37;;;11.80;98.00;;;;;;5054454;28;20491;-66
2023/05/16 04:54:59;;;;;;;5.90;3.50;;;11.90;98.00;;;;;;5055264;28;20945;-66
2023/05/16 04:57:26;;;;;;;8.60;4.70;;;12.00;98.00;;;;;;5055175;28;20977;-66
2023/05/16 04:59:53;;;;;;;9.33;4.40;;;12.00;98.00;;;;;;5055084;28;20880;-66
2023/05/16 05:02:21;;;;;;;6.40;3.23;;;12.00;98.00;;;;;;5054656;28;20978;-66
2023/05/16 05:04:48;;;;;;;9.60;3.73;;;11.90;98.00;;;;;;5053891;28;20521;-66
2023/05/16 05:07:16;;;;;;;6.90;3.70;;;11.80;98.00;;;;;;5054734;28;20480;-66
2023/05/16 05:09:43;;;;;;;5.87;3.47;;;11.80;98.00;;;;;;5055001;28;20462;-67
2023/05/16 05:12:11;;;;;;;8.90;4.33;;;11.80;98.00;;;;;;5054724;28;20465;-66
2023/05/16 05:14:38;;;;;;;8.17;3.93;;;11.90;98.00;;;;;;5054655;28;20995;-65
2023/05/16 05:17:05;;;;;;;6.90;4.27;;;12.00;98.00;;;;;;5054550;28;20474;-66
2023/05/16 05:19:32;;;;;;;7.40;4.30;;;12.10;98.00;;;;;;5054797;28;20461;-66
2023/05/16 05:21:59;;;;;;;7.90;4.43;;;12.10;98.00;;;;;;5054584;28;20572;-65
2023/05/16 05:24:28;;;;;;;11.13;5.30;;;12.20;98.00;;;;;;5054566;28;20604;-66
2023/05/16 05:26:55;;;;;;;13.80;5.07;;;12.30;98.00;;;;;;5054482;28;20454;-66
2023/05/16 05:29:23;;;;;;;13.40;5.43;;;12.50;98.00;;;;;;5054510;28;20455;-66
2023/05/16 05:31:50;;;;;;;19.53;5.43;;;12.70;98.00;;;;;;5053869;28;21060;-66
2023/05/16 05:34:17;;;;;;;9.90;5.20;;;12.70;98.00;;;;;;5054380;28;20489;-66
2023/05/16 05:36:44;;;;;;;12.93;5.67;;;12.80;98.00;;;;;;5054410;28;20514;-65
2023/05/16 05:39:11;;;;;;;15.67;5.57;;;12.80;98.00;;;;;;5054356;28;20797;-66
2023/05/16 05:41:40;;;;;;;13.30;6.33;;;12.70;98.00;;;;;;5054358;28;20455;-66
2023/05/16 05:44:08;;;;;;;14.20;5.20;;;12.90;98.00;;;;;;5053258;28;20468;-67
2023/05/16 05:46:35;;;;;;;15.67;5.87;;;12.80;98.00;;;;;;5054574;28;20482;-66
2023/05/16 05:49:03;;;;;;;11.10;5.60;;;12.90;98.00;;;;;;5053889;28;20465;-66
2023/05/16 05:51:30;;;;;;;13.20;6.37;;;13.10;98.00;;;;;;5054058;28;20480;-66
2023/05/16 05:53:58;;;;;;;13.83;5.67;;;13.10;98.00;;;;;;5053994;28;20483;-66
2023/05/16 05:56:25;;;;;;;15.50;5.70;;;13.20;98.00;;;;;;5053808;28;20531;-66
2023/05/16 05:58:54;;;;;;;15.30;6.30;;;13.30;98.00;;;;;;5054152;28;20799;-66
2023/05/16 06:01:21;;;;;;;12.53;5.93;;;13.30;98.00;;;;;;5053882;28;20459;-61
2023/05/16 06:03:48;;;;;;;12.10;6.20;;;13.30;98.00;;;;;;5054120;28;20538;-61
2023/05/16 06:06:15;;;;;;;14.63;6.97;;;13.20;98.00;;;;;;5052436;28;20476;-61
2023/05/16 06:08:43;;;;;;;17.33;6.77;;;13.10;98.00;;;;;;5053738;28;20462;-61
2023/05/16 06:11:10;;;;;;;20.70;7.80;;;13.20;98.00;;;;;;5052390;28;20459;-62
2023/05/16 06:13:37;;;;;;;18.43;7.97;;;13.00;98.00;;;;;;5053691;28;20481;-62
2023/05/16 06:16:06;;;;;;;16.23;6.50;;;13.10;98.00;;;;;;5053708;28;20829;-62
2023/05/16 06:18:33;;;;;;;16.00;7.50;;;13.10;98.00;;;;;;5053726;28;20468;-62
2023/05/16 06:21:00;;;;;;;21.50;7.57;;;13.10;98.00;;;;;;5053522;28;20469;-61
2023/05/16 06:23:27;;;;;;;17.63;7.43;;;13.10;98.00;;;;;;5053654;28;20483;-61
2023/05/16 06:25:54;;;;;;;13.60;6.47;;;13.00;98.00;;;;;;5053345;28;20479;-61
2023/05/16 06:28:22;;;;;;;16.80;7.17;;;13.00;98.00;;;;;;5053602;28;20881;-62
2023/05/16 06:30:50;;;;;;;18.67;8.20;;;13.20;98.00;;;;;;5053405;28;20453;-61
2023/05/16 06:33:19;;;;;;;16.47;7.17;;;13.20;98.00;;;;;;5053320;28;20484;-61
2023/05/16 06:35:47;;;;;;;18.63;8.60;;;13.20;98.00;;;;;;5053258;28;20457;-62
2023/05/16 06:38:16;;;;;;;22.30;8.23;;;13.20;98.00;;;;;;5053493;28;20456;-62
2023/05/16 06:40:43;;;;;;;16.33;7.40;;;13.40;98.00;;;;;;5053381;28;20467;-61
2023/05/16 06:43:11;;;;;;;18.43;7.23;;;13.40;98.00;;;;;;5051083;28;20812;-62
2023/05/16 06:45:38;;;;;;;21.43;8.00;;;13.40;98.00;;;;;;5051920;28;20461;-62
2023/05/16 06:48:06;;;;;;;17.07;7.30;;;13.40;98.00;;;;;;5052984;28;21019;-61
2023/05/16 06:50:35;;;;;;;15.93;7.27;;;13.60;98.00;;;;;;5052719;28;20550;-61
2023/05/16 06:53:03;;;;;;;12.90;6.77;;;13.60;98.00;;;;;;5060827;28;20468;-62
2023/05/16 06:55:30;;;;;;;18.40;8.30;;;13.60;98.00;;;;;;5072581;28;20544;-61
2023/05/16 06:58:00;;;;;;;16.90;7.57;;;13.60;98.00;;;;;;5072298;28;21014;-61
2023/05/16 07:00:27;;;;;;;18.60;8.17;;;13.70;98.00;;;;;;5072581;28;20457;-61
2023/05/16 07:02:54;;;;;;;17.50;7.97;;;13.60;98.00;;;;;;5072288;28;20867;-61
2023/05/16 07:05:21;;;;;;;17.27;8.20;;;13.70;98.00;;;;;;5054713;28;20461;-61
2023/05/16 07:07:50;;;;;;;15.27;6.93;;;13.90;98.00;;;;;;5054818;28;20464;-62
2023/05/16 07:10:20;;;;;;;13.93;6.80;;;14.00;98.00;;;;;;5072489;28;20456;-62
2023/05/16 07:12:47;;;;;;;18.73;7.47;;;14.00;98.00;;;;;;5072480;28;20459;-61
2023/05/16 07:15:15;;;;;;;19.30;6.40;;;14.00;98.00;;;;;;5054173;28;20566;-61
2023/05/16 07:17:42;;;;;;;13.40;6.30;;;14.00;98.00;;;;;;5072323;28;20552;-61
2023/05/16 07:20:12;;;;;;;14.40;6.60;;;14.00;98.00;;;;;;5072310;28;20453;-62
2023/05/16 07:22:39;;;;;;;16.83;6.57;;;14.00;98.00;;;;;;5072420;28;20881;-60
2023/05/16 07:25:11;;;;;;;10.80;5.23;;;14.00;98.00;;;;;;5072179;28;20946;-62
2023/05/16 07:27:40;;;;;;;16.03;6.40;;;14.00;98.00;;;;;;5072239;28;20455;-61
2023/05/16 07:30:09;;;;;;;13.10;6.00;;;14.00;98.00;;;;;;5072213;28;20981;-61
2023/05/16 07:32:36;;;;;;;11.33;5.33;;;14.00;98.00;;;;;;5054674;28;20471;-62
2023/05/16 07:35:04;;;;;;;11.70;5.77;;;14.00;98.00;;;;;;5072238;28;20486;-61
2023/05/16 07:37:33;;;;;;;13.57;5.77;;;14.10;98.00;;;;;;5072120;28;20547;-61
2023/05/16 07:40:00;;;;;;;11.60;5.53;;;14.10;98.00;;;;;;5072060;28;20451;-61
2023/05/16 07:42:29;;;;;;;12.77;5.60;;;14.10;98.00;;;;;;5054048;28;20537;-63
2023/05/16 07:44:56;;;;;;;14.27;6.20;;;14.20;98.00;;;;;;5071889;28;20961;-61
2023/05/16 07:47:23;;;;;;;11.73;5.50;;;14.20;98.00;;;;;;5071839;28;20481;-61
2023/05/16 07:49:50;;;;;;;16.17;5.73;;;14.10;98.00;;;;;;5071259;28;20464;-62
2023/05/16 07:52:17;;;;;;;15.63;5.73;;;14.10;98.00;;;;;;5070057;28;20464;-63
2023/05/16 07:54:46;;;;;;;18.20;5.70;;;14.20;98.00;;;;;;5071431;28;20529;-61
2023/05/16 07:57:14;;;;;;;11.80;5.13;;;14.10;98.00;;;;;;5071790;28;20505;-61
2023/05/16 07:59:43;;;;;;;14.10;6.10;;;14.20;98.00;;;;;;5070916;28;20875;-62
2023/05/16 08:02:11;;;;;;;12.77;5.00;;;14.20;98.00;;;;;;5071650;28;20808;-62
2023/05/16 08:04:39;;;;;;;10.40;5.50;;;14.20;98.00;;;;;;5071712;28;20456;-62
2023/05/16 08:07:06;;;;;;;9.13;4.70;;;14.20;98.00;;;;;;5071739;28;20455;-62
2023/05/16 08:09:33;;;;;;;10.33;5.60;;;14.10;98.00;;;;;;5071741;28;20468;-61
2023/05/16 08:12:02;;;;;;;12.07;5.30;;;14.10;98.00;;;;;;5071713;28;20466;-61
2023/05/16 08:14:31;;;;;;;14.13;5.57;;;14.10;98.00;;;;;;5054408;28;20853;-62
2023/05/16 08:17:00;;;;;;;12.97;5.60;;;14.10;98.00;;;;;;5071428;28;20499;-61
2023/05/16 08:19:28;;;;;;;10.40;4.87;;;14.10;98.00;;;;;;5071887;28;20465;-62
2023/05/16 08:21:55;;;;;;;9.67;5.00;;;14.10;98.00;;;;;;5071511;28;20503;-61
2023/05/16 08:24:22;;;;;;;12.23;5.63;;;14.10;98.00;;;;;;5071833;28;20459;-61
2023/05/16 08:26:49;;;;;;;9.67;4.00;;;14.20;98.00;;;;;;5071711;28;20819;-62
2023/05/16 08:29:16;;;;;;;13.60;5.27;;;14.20;98.00;;;;;;5071853;28;20462;-62
2023/05/16 08:31:43;;;;;;;8.13;4.57;;;14.20;98.00;;;;;;5071638;28;20458;-63
2023/05/16 08:34:12;;;;;;;8.80;4.53;;;14.10;98.00;;;;;;5070797;28;20480;-61
2023/05/16 08:36:40;;;;;;;11.70;4.37;;;14.20;98.00;;;;;;5061766;28;20457;-62
2023/05/16 08:39:09;;;;;;;11.17;5.17;;;14.20;98.00;;;;;;5050960;28;20461;-62
2023/05/16 08:41:37;;;;;;;9.20;4.50;;;14.20;98.00;;;;;;5051088;28;20468;-61
2023/05/16 08:44:04;;;;;;;10.23;4.67;;;14.20;98.00;;;;;;5051171;28;20468;-62
2023/05/16 08:46:34;;;;;;;8.77;4.57;;;14.20;98.00;;;;;;5051201;28;20522;-62
2023/05/16 08:49:06;;;;;;;13.40;5.57;;;14.10;98.00;;;;;;5051167;28;20486;-62
2023/05/16 08:51:36;;;;;;;9.37;4.23;;;14.10;98.00;;;;;;5050953;28;20933;-61
2023/05/16 08:54:06;;;;;;;8.53;4.60;;;14.20;98.00;;;;;;5050824;28;20481;-61
2023/05/16 08:56:35;;;;;;;8.47;4.40;;;14.20;98.00;;;;;;5051014;28;20456;-62
2023/05/16 08:59:03;;;;;;;8.07;4.20;;;14.20;98.00;;;;;;5017297;28;20462;-62
2023/05/16 09:01:32;;;;;;;12.00;4.87;;;14.30;98.00;;;;;;5051046;28;20456;-62
2023/05/16 09:04:00;;;;;;;13.33;5.20;;;14.30;98.00;;;;;;5051193;28;20648;-61
2023/05/16 09:06:28;;;;;;;10.97;5.20;;;14.30;98.00;;;;;;5052850;28;20503;-62
2023/05/16 09:08:56;;;;;;;9.33;4.70;;;14.20;98.00;;;;;;5055236;28;20520;-62
2023/05/16 09:11:24;;;;;;;7.13;4.27;;;14.20;98.00;;;;;;5055179;28;20457;-63
2023/05/16 09:13:51;;;;;;;9.27;4.30;;;14.20;98.00;;;;;;5055115;28;20517;-63
2023/05/16 09:16:20;;;;;;;9.37;4.57;;;14.30;98.00;;;;;;5054579;28;20460;-62
2023/05/16 09:18:54;;;;;;;13.03;5.03;;;14.20;98.00;;;;;;5054669;28;20472;-62
2023/05/16 09:21:21;;;;;;;9.50;4.77;;;14.30;98.00;;;;;;5054759;28;20464;-62
2023/05/16 09:23:50;;;;;;;11.03;4.47;;;14.40;98.00;;;;;;5054759;28;20465;-61
2023/05/16 09:26:19;;;;;;;7.47;4.33;;;14.50;98.00;;;;;;5053978;28;20536;-62
2023/05/16 09:28:46;;;;;;;10.80;4.83;;;14.50;98.00;;;;;;5054357;28;20454;-62
2023/05/16 09:31:21;;;;;;;13.20;5.40;;;14.50;98.00;;;;;;5036837;28;20449;-62
2023/05/16 09:33:50;;;;;;;8.20;3.97;;;14.50;98.00;;;;;;5054222;28;20457;-62
2023/05/16 09:36:18;;;;;;;9.37;4.70;;;14.60;98.00;;;;;;5053966;28;20445;-62
2023/05/16 09:38:45;;;;;;;7.93;4.47;;;14.70;98.00;;;;;;5054136;28;20517;-62
2023/05/16 09:41:12;;;;;;;11.30;5.20;;;14.70;98.00;;;;;;5054153;28;20935;-62
2023/05/16 09:43:42;;;;;;;10.50;5.03;;;14.70;98.00;;;;;;5052618;28;20470;-62
2023/05/16 09:46:12;;;;;;;10.63;4.60;;;14.70;98.00;;;;;;5053924;28;20532;-62
2023/05/16 09:48:41;;;;;;;9.17;4.47;;;14.70;98.00;;;;;;5053837;28;20456;-61
2023/05/16 09:51:11;;;;;;;11.40;5.67;;;14.80;98.00;;;;;;5053781;28;21038;-61
2023/05/16 09:53:40;;;;;;;10.20;5.33;;;14.80;98.00;;;;;;5053849;28;20486;-61
2023/05/16 09:56:11;;;;;;;9.00;4.60;;;14.80;98.00;;;;;;5053769;28;20484;-61
2023/05/16 09:58:41;;;;;;;9.43;4.53;;;14.90;98.00;;;;;;5052659;28;20465;-62
2023/05/16 10:01:10;;;;;;;9.37;4.60;;;14.90;98.00;;;;;;5052546;28;20464;-61
2023/05/16 10:03:38;;;;;;;11.87;5.40;;;14.90;98.00;;;;;;5053858;28;20462;-62
2023/05/16 10:06:07;;;;;;;15.50;5.50;;;14.90;98.00;;;;;;5053544;28;20576;-61
2023/05/16 10:08:35;;;;;;;8.20;4.37;;;14.80;98.00;;;;;;5052485;28;20935;-61
2023/05/16 10:11:04;;;;;;;7.77;4.47;;;14.80;98.00;;;;;;5053316;28;20557;-61
2023/05/16 10:13:34;;;;;;;9.67;4.90;;;14.80;98.00;;;;;;5053480;28;20460;-61
2023/05/16 10:16:07;;;;;;;11.90;5.03;;;14.80;98.00;;;;;;5052605;28;20488;-61
2023/05/16 10:18:35;;;;;;;15.20;5.60;;;14.90;98.00;;;;;;5052659;28;20533;-62
2023/05/16 10:21:06;;;;;;;10.90;5.03;;;14.90;98.00;;;;;;5038738;28;20526;-62
2023/05/16 10:23:34;;;;;;;11.97;4.97;;;15.00;98.00;;;;;;5052914;28;20457;-61
2023/05/16 10:26:04;;;;;;;10.63;5.33;;;15.00;98.00;;;;;;5052000;28;20469;-62
2023/05/16 10:28:40;;;;;;;10.40;5.40;;;15.20;98.00;;;;;;5053172;28;20545;-61
2023/05/16 10:31:10;;;;;;;11.20;4.73;;;15.30;98.00;;;;;;5053335;28;20458;-62
2023/05/16 10:33:37;;;;;;;9.93;5.27;;;15.20;98.00;;;;;;5053011;28;20975;-62
2023/05/16 10:36:05;;;;;;;10.23;4.90;;;15.30;98.00;;;;;;5052886;28;20489;-61
2023/05/16 10:38:34;;;;;;;11.70;4.70;;;15.40;98.00;;;;;;5035631;28;20542;-62
2023/05/16 10:41:02;;;;;;;9.20;4.37;;;15.50;98.00;;;;;;5052939;28;20548;-62
2023/05/16 10:43:31;;;;;;;11.93;5.73;;;15.50;98.00;;;;;;5035356;28;20457;-61
2023/05/16 10:46:02;;;;;;;9.73;4.80;;;15.60;98.00;;;;;;5035407;28;20857;-62
2023/05/16 10:48:32;;;;;;;11.33;5.20;;;15.60;98.00;;;;;;5035810;28;20472;-62
2023/05/16 10:51:01;;;;;;;15.03;5.47;;;15.70;98.00;;;;;;5052539;28;20468;-62
2023/05/16 10:53:33;;;;;;;12.27;5.33;;;15.60;98.00;;;;;;5052755;28;20466;-62
2023/05/16 10:56:22;;;;;;;11.50;5.17;;;15.60;98.00;;;;;;5052522;28;20489;-62
2023/05/16 10:58:50;;;;;;;13.77;5.60;;;15.50;98.00;;;;;;5052667;28;20461;-62
2023/05/16 11:01:23;;;;;;;11.17;5.40;;;15.40;98.00;;;;;;5057896;28;20452;-63
2023/05/16 11:04:04;;;;;;;10.10;5.00;;;15.40;98.00;;;;;;5052456;28;20876;-61
2023/05/16 11:06:33;;;;;;;11.00;5.00;;;15.40;98.00;;;;;;5052622;28;20969;-62
2023/05/16 11:09:28;;;;;;;11.60;5.10;;;15.50;98.00;;;;;;5052735;28;20456;-62
2023/05/16 11:12:01;;;;;;;11.80;5.57;;;15.50;98.00;;;;;;5052561;28;20447;-62
2023/05/16 11:14:36;;;;;;;12.67;5.37;;;15.50;98.00;;;;;;5052491;28;20453;-62
2023/05/16 11:17:09;;;;;;;8.87;4.93;;;15.30;98.00;;;;;;5052148;28;20453;-61
2023/05/16 11:19:40;;;;;;;8.67;4.53;;;15.40;98.00;;;;;;5052377;28;20870;-63
2023/05/16 11:22:22;;;;;;;14.83;4.57;;;15.40;98.00;;;;;;5051119;28;20494;-62
2023/05/16 11:24:52;;;;;;;9.63;4.93;;;15.30;98.00;;;;;;5052561;28;20818;-62
2023/05/16 11:27:27;;;;;;;10.17;5.20;;;15.30;98.00;;;;;;5051821;28;20465;-62
2023/05/16 11:29:58;;;;;;;10.10;4.90;;;15.30;98.00;;;;;;5051780;28;20508;-62
2023/05/16 11:32:25;;;;;;;9.23;4.33;;;15.10;98.00;;;;;;5051718;28;20457;-62
2023/05/16 11:34:55;;;;;;;9.07;4.73;;;15.00;98.00;;;;;;5051929;28;20490;-63
2023/05/16 11:37:22;;;;;;;11.83;5.10;;;15.00;98.00;;;;;;5051790;28;20471;-62
2023/05/16 11:39:50;;;;;;;10.17;4.77;;;15.00;98.00;;;;;;5051896;28;20955;-62
2023/05/16 11:42:17;;;;;;;16.73;5.20;;;15.00;98.00;;;;;;5051874;28;20483;-62
2023/05/16 11:44:45;;;;;;;9.07;4.73;;;15.00;98.00;;;;;;5051999;28;20982;-62
2023/05/16 11:47:12;;;;;;;10.93;5.30;;;15.00;98.00;;;;;;5051766;28;20461;-62
2023/05/16 11:49:40;;;;;;;13.47;5.37;;;15.00;98.00;;;;;;5051809;28;20493;-62
2023/05/16 11:52:09;;;;;;;10.53;5.37;;;15.10;98.00;;;;;;5051567;28;20518;-62
2023/05/16 11:54:37;;;;;;;16.23;6.07;;;15.10;98.00;;;;;;5051630;28;20870;-62
2023/05/16 11:57:04;;;;;;;10.57;5.07;;;15.10;98.00;;;;;;5051354;28;20457;-62
2023/05/16 11:59:31;;;;;;;13.60;5.83;;;15.10;98.00;;;;;;5050643;28;20462;-62
2023/05/16 12:02:03;;;;;;;12.93;5.93;;;15.10;98.00;;;;;;5051697;28;20464;-62
2023/05/16 12:04:30;;;;;;;11.87;5.33;;;15.10;98.00;;;;;;5050864;28;20482;-62
2023/05/16 12:07:02;;;;;;;13.37;5.80;;;15.10;98.00;;;;;;5051553;28;20456;-61
2023/05/16 12:09:31;;;;;;;12.97;5.50;;;15.10;98.00;;;;;;5051824;28;20513;-62
2023/05/16 12:11:59;;;;;;;13.30;5.80;;;15.00;98.00;;;;;;5051818;28;20519;-62
2023/05/16 12:14:26;;;;;;;15.47;6.57;;;15.00;98.00;;;;;;5052201;28;20459;-62
2023/05/16 12:16:53;;;;;;;13.33;5.53;;;15.00;98.00;;;;;;5051743;28;20493;-62
2023/05/16 12:19:22;;;;;;;12.43;5.60;;;15.00;98.00;;;;;;5051799;28;20823;-62
2023/05/16 12:21:53;;;;;;;12.57;5.30;;;15.00;98.00;;;;;;5051422;28;20551;-62
2023/05/16 12:24:20;;;;;;;11.43;5.40;;;14.90;98.00;;;;;;5051910;28;20457;-63
2023/05/16 12:26:48;;;;;;;8.70;4.67;;;14.90;98.00;;;;;;5051352;28;20459;-63
2023/05/16 12:29:17;;;;;;;11.37;4.83;;;14.80;98.00;;;;;;5051763;28;20461;-62
2023/05/16 12:31:44;;;;;;;10.53;5.37;;;14.70;98.00;;;;;;5050082;28;20464;-62
2023/05/16 12:34:22;;;;;;;11.00;5.53;;;14.70;98.00;;;;;;5050359;28;20922;-63
2023/05/16 12:36:53;;;;;;;13.37;5.13;;;14.60;98.00;;;;;;5050384;28;20486;-62
2023/05/16 12:39:20;;;;;;;10.47;4.83;;;14.40;98.00;;;;;;5051997;28;20460;-62
2023/05/16 12:41:49;;;;;;;8.80;4.37;;;14.40;98.00;;;;;;5054402;28;20455;-62
2023/05/16 12:44:18;;;;;;;9.87;4.80;;;14.30;98.00;;;;;;5055755;28;20459;-62
2023/05/16 12:46:47;;;;;;;8.37;4.80;;;14.20;98.00;;;;;;5055716;28;20496;-62
2023/05/16 12:49:14;;;;;;;9.50;4.27;;;14.30;98.00;;;;;;5054606;28;20455;-62
2023/05/16 12:51:50;;;;;;;10.40;4.83;;;14.30;98.00;;;;;;5055550;28;20464;-63